sensor_id;sensor_type;location;lat;lon;timestamp;pressure;altitude;pressure_sealevel;temperature;humidity
14612;BME280;7392;52.078;11.650;2023-07-20T00:00:25;100436.09;;;17.20;100.00
14612;BME280;7392;52.078;11.650;2023-07-20T00:03:09;100437.81;;;17.21;100.00
14612;BME280;7392;52.078;11.650;2023-07-20T00:05:37;100436.09;;;17.20;100.00
14612;BME280;7392;52.078;11.650;2023-07-20T00:08:06;100436.09;;;17.20;100.00
14612;BME280;7392;52.078;11.650;2023-07-20T00:10:34;100436.13;;;17.18;100.00
14612;BME280;7392;52.078;11.650;2023-07-20T00:13:03;100430.81;;;17.17;100.00
14612;BME280;7392;52.078;11.650;2023-07-20T00:15:30;100435.28;;;17.16;100.00
14612;BME280;7392;52.078;11.650;2023-07-20T00:17:58;100446.97;;;17.15;100.00
14612;BME280;7392;52.078;11.650;2023-07-20T00:20:26;100438.97;;;17.14;100.00
14612;BME280;7392;52.078;11.650;2023-07-20T00:22:54;100451.56;;;17.12;100.00
14612;BME280;7392;52.078;11.650;2023-07-20T00:25:24;100461.47;;;17.10;100.00
14612;BME280;7392;52.078;11.650;2023-07-20T00:27:52;100452.63;;;17.06;100.00
14612;BME280;7392;52.078;11.650;2023-07-20T00:30:21;100450.06;;;17.03;100.00
14612;BME280;7392;52.078;11.650;2023-07-20T00:32:49;100450.16;;;17.00;100.00
14612;BME280;7392;52.078;11.650;2023-07-20T00:35:17;100451.19;;;16.96;100.00
14612;BME280;7392;52.078;11.650;2023-07-20T00:37:44;100451.31;;;16.93;100.00
14612;BME280;7392;52.078;11.650;2023-07-20T00:40:12;100452.28;;;16.90;100.00
14612;BME280;7392;52.078;11.650;2023-07-20T00:42:40;100453.31;;;16.86;100.00
14612;BME280;7392;52.078;11.650;2023-07-20T00:45:08;100453.41;;;16.81;100.00
14612;BME280;7392;52.078;11.650;2023-07-20T00:47:38;100458.97;;;16.75;100.00
14612;BME280;7392;52.078;11.650;2023-07-20T00:50:06;100456.47;;;16.71;100.00
14612;BME280;7392;52.078;11.650;2023-07-20T00:52:35;100457.50;;;16.65;100.00
14612;BME280;7392;52.078;11.650;2023-07-20T00:55:07;100461.22;;;16.61;100.00
14612;BME280;7392;52.078;11.650;2023-07-20T00:57:35;100473.03;;;16.55;100.00
14612;BME280;7392;52.078;11.650;2023-07-20T01:00:07;100460.63;;;16.51;100.00
14612;BME280;7392;52.078;11.650;2023-07-20T01:02:34;100463.41;;;16.48;100.00
14612;BME280;7392;52.078;11.650;2023-07-20T01:05:06;100461.81;;;16.42;100.00
14612;BME280;7392;52.078;11.650;2023-07-20T01:07:36;100465.47;;;16.40;100.00
14612;BME280;7392;52.078;11.650;2023-07-20T01:10:10;100474.50;;;16.36;100.00
14612;BME280;7392;52.078;11.650;2023-07-20T01:12:42;100478.25;;;16.30;100.00
14612;BME280;7392;52.078;11.650;2023-07-20T01:15:10;100471.22;;;16.26;100.00
14612;BME280;7392;52.078;11.650;2023-07-20T01:17:38;100483.78;;;16.24;100.00
14612;BME280;7392;52.078;11.650;2023-07-20T01:20:10;100484.81;;;16.20;100.00
14612;BME280;7392;52.078;11.650;2023-07-20T01:22:58;100471.53;;;16.15;100.00
14612;BME280;7392;52.078;11.650;2023-07-20T01:25:50;100471.75;;;16.09;100.00
14612;BME280;7392;52.078;11.650;2023-07-20T01:28:37;100468.38;;;16.02;100.00
14612;BME280;7392;52.078;11.650;2023-07-20T01:31:24;100467.59;;;15.99;100.00
14612;BME280;7392;52.078;11.650;2023-07-20T01:33:55;100476.69;;;15.92;100.00
14612;BME280;7392;52.078;11.650;2023-07-20T01:36:24;100474.19;;;15.85;100.00
14612;BME280;7392;52.078;11.650;2023-07-20T01:38:54;100471.59;;;15.82;100.00
14612;BME280;7392;52.078;11.650;2023-07-20T01:41:23;100477.97;;;15.78;100.00
14612;BME280;7392;52.078;11.650;2023-07-20T01:43:51;100479.81;;;15.75;100.00
14612;BME280;7392;52.078;11.650;2023-07-20T01:46:19;100478.16;;;15.70;100.00
14612;BME280;7392;52.078;11.650;2023-07-20T01:48:48;100484.44;;;15.68;100.00
14612;BME280;7392;52.078;11.650;2023-07-20T01:51:17;100479.25;;;15.63;100.00
14612;BME280;7392;52.078;11.650;2023-07-20T01:53:47;100483.75;;;15.61;100.00
14612;BME280;7392;52.078;11.650;2023-07-20T01:56:15;100478.47;;;15.58;100.00
14612;BME280;7392;52.078;11.650;2023-07-20T01:58:43;100485.72;;;15.55;100.00
14612;BME280;7392;52.078;11.650;2023-07-20T02:01:11;100486.72;;;15.50;100.00
14612;BME280;7392;52.078;11.650;2023-07-20T02:03:39;100486.75;;;15.49;100.00
14612;BME280;7392;52.078;11.650;2023-07-20T02:06:08;100482.38;;;15.46;100.00
14612;BME280;7392;52.078;11.650;2023-07-20T02:08:36;100492.25;;;15.44;100.00
14612;BME280;7392;52.078;11.650;2023-07-20T02:11:04;100491.44;;;15.41;100.00
14612;BME280;7392;52.078;11.650;2023-07-20T02:13:32;100490.56;;;15.39;100.00
14612;BME280;7392;52.078;11.650;2023-07-20T02:16:00;100492.44;;;15.37;100.00
14612;BME280;7392;52.078;11.650;2023-07-20T02:18:27;100489.81;;;15.33;100.00
14612;BME280;7392;52.078;11.650;2023-07-20T02:20:55;100484.50;;;15.32;100.00
14612;BME280;7392;52.078;11.650;2023-07-20T02:23:25;100491.75;;;15.28;100.00
14612;BME280;7392;52.078;11.650;2023-07-20T02:25:52;100493.53;;;15.28;100.00
14612;BME280;7392;52.078;11.650;2023-07-20T02:28:23;100498.06;;;15.26;100.00
14612;BME280;7392;52.078;11.650;2023-07-20T02:30:51;100495.41;;;15.24;100.00
14612;BME280;7392;52.078;11.650;2023-07-20T02:33:20;100502.56;;;15.24;100.00
14612;BME280;7392;52.078;11.650;2023-07-20T02:35:48;100499.94;;;15.22;100.00
14612;BME280;7392;52.078;11.650;2023-07-20T02:38:17;100501.69;;;15.23;100.00
14612;BME280;7392;52.078;11.650;2023-07-20T02:40:46;100495.50;;;15.21;100.00
14612;BME280;7392;52.078;11.650;2023-07-20T02:43:14;100504.47;;;15.20;100.00
14612;BME280;7392;52.078;11.650;2023-07-20T02:45:42;100501.81;;;15.19;100.00
14612;BME280;7392;52.078;11.650;2023-07-20T02:48:10;100497.38;;;15.18;100.00
14612;BME280;7392;52.078;11.650;2023-07-20T02:50:39;100500.06;;;15.16;100.00
14612;BME280;7392;52.078;11.650;2023-07-20T02:53:07;100497.41;;;15.16;100.00
14612;BME280;7392;52.078;11.650;2023-07-20T02:55:35;100498.34;;;15.15;100.00
14612;BME280;7392;52.078;11.650;2023-07-20T02:58:04;100501.00;;;15.15;100.00
14612;BME280;7392;52.078;11.650;2023-07-20T03:00:32;100500.13;;;15.14;100.00
14612;BME280;7392;52.078;11.650;2023-07-20T03:03:00;100502.81;;;15.13;100.00
14612;BME280;7392;52.078;11.650;2023-07-20T03:05:28;100503.72;;;15.13;100.00
14612;BME280;7392;52.078;11.650;2023-07-20T03:07:56;100502.81;;;15.13;100.00
14612;BME280;7392;52.078;11.650;2023-07-20T03:10:25;100508.16;;;15.13;100.00
14612;BME280;7392;52.078;11.650;2023-07-20T03:12:55;100509.06;;;15.13;100.00
14612;BME280;7392;52.078;11.650;2023-07-20T03:15:24;100504.59;;;15.14;100.00
14612;BME280;7392;52.078;11.650;2023-07-20T03:17:52;100509.97;;;15.12;100.00
14612;BME280;7392;52.078;11.650;2023-07-20T03:20:21;100512.63;;;15.14;100.00
14612;BME280;7392;52.078;11.650;2023-07-20T03:22:49;100520.63;;;15.14;100.00
14612;BME280;7392;52.078;11.650;2023-07-20T03:25:17;100514.47;;;15.12;100.00
14612;BME280;7392;52.078;11.650;2023-07-20T03:27:46;100517.09;;;15.13;100.00
14612;BME280;7392;52.078;11.650;2023-07-20T03:30:14;100515.31;;;15.12;100.00
14612;BME280;7392;52.078;11.650;2023-07-20T03:32:43;100524.22;;;15.13;100.00
14612;BME280;7392;52.078;11.650;2023-07-20T03:35:14;100512.66;;;15.12;100.00
14612;BME280;7392;52.078;11.650;2023-07-20T03:37:42;100526.06;;;15.11;100.00
14612;BME280;7392;52.078;11.650;2023-07-20T03:40:11;100523.41;;;15.09;100.00
14612;BME280;7392;52.078;11.650;2023-07-20T03:42:39;100532.44;;;15.05;100.00
14612;BME280;7392;52.078;11.650;2023-07-20T03:45:07;100528.84;;;15.06;100.00
14612;BME280;7392;52.078;11.650;2023-07-20T03:47:35;100532.44;;;15.05;100.00
14612;BME280;7392;52.078;11.650;2023-07-20T03:50:06;100529.81;;;15.04;100.00
14612;BME280;7392;52.078;11.650;2023-07-20T03:52:36;100537.81;;;15.04;100.00
14612;BME280;7392;52.078;11.650;2023-07-20T03:55:05;100532.47;;;15.04;100.00
14612;BME280;7392;52.078;11.650;2023-07-20T03:57:33;100533.31;;;15.06;100.00
14612;BME280;7392;52.078;11.650;2023-07-20T04:00:00;100529.78;;;15.05;100.00
14612;BME280;7392;52.078;11.650;2023-07-20T04:02:38;100528.88;;;15.05;100.00
14612;BME280;7392;52.078;11.650;2023-07-20T04:05:08;100528.88;;;15.05;100.00
14612;BME280;7392;52.078;11.650;2023-07-20T04:07:36;100532.44;;;15.05;100.00
14612;BME280;7392;52.078;11.650;2023-07-20T04:10:04;100531.44;;;15.09;100.00
14612;BME280;7392;52.078;11.650;2023-07-20T04:12:34;100534.13;;;15.09;100.00
14612;BME280;7392;52.078;11.650;2023-07-20T04:15:02;100534.06;;;15.12;100.00
14612;BME280;7392;52.078;11.650;2023-07-20T04:17:30;100540.22;;;15.14;100.00
14612;BME280;7392;52.078;11.650;2023-07-20T04:19:58;100538.50;;;15.13;100.00
14612;BME280;7392;52.078;11.650;2023-07-20T04:22:28;100535.78;;;15.15;100.00
14612;BME280;7392;52.078;11.650;2023-07-20T04:24:56;100544.66;;;15.17;100.00
14612;BME280;7392;52.078;11.650;2023-07-20T04:27:24;100543.72;;;15.18;100.00
14612;BME280;7392;52.078;11.650;2023-07-20T04:29:52;100542.81;;;15.19;100.00
14612;BME280;7392;52.078;11.650;2023-07-20T04:32:20;100544.56;;;15.20;100.00
14612;BME280;7392;52.078;11.650;2023-07-20T04:34:48;100542.81;;;15.19;100.00
14612;BME280;7392;52.078;11.650;2023-07-20T04:37:17;100553.50;;;15.19;100.00
14612;BME280;7392;52.078;11.650;2023-07-20T04:39:49;100549.97;;;15.19;100.00
14612;BME280;7392;52.078;11.650;2023-07-20T04:42:17;100551.69;;;15.20;100.00
14612;BME280;7392;52.078;11.650;2023-07-20T04:44:46;100555.31;;;15.19;100.00
14612;BME280;7392;52.078;11.650;2023-07-20T04:47:15;100554.41;;;15.18;100.00
14612;BME280;7392;52.078;11.650;2023-07-20T04:49:42;100547.19;;;15.22;100.00
14612;BME280;7392;52.078;11.650;2023-07-20T04:52:10;100548.06;;;15.24;100.00
14612;BME280;7392;52.078;11.650;2023-07-20T04:54:39;100543.50;;;15.27;100.00
14612;BME280;7392;52.078;11.650;2023-07-20T04:57:11;100547.00;;;15.29;100.00
14612;BME280;7392;52.078;11.650;2023-07-20T04:59:44;100541.66;;;15.29;100.00
14612;BME280;7392;52.078;11.650;2023-07-20T05:02:12;100537.19;;;15.30;100.00
14612;BME280;7392;52.078;11.650;2023-07-20T05:04:40;100542.50;;;15.31;100.00
14612;BME280;7392;52.078;11.650;2023-07-20T05:07:08;100547.81;;;15.33;100.00
14612;BME280;7392;52.078;11.650;2023-07-20T05:09:36;100544.22;;;15.34;100.00
14612;BME280;7392;52.078;11.650;2023-07-20T05:12:04;100547.66;;;15.39;100.00
14612;BME280;7392;52.078;11.650;2023-07-20T05:14:33;100559.19;;;15.43;100.00
14612;BME280;7392;52.078;11.650;2023-07-20T05:17:01;100545.75;;;15.44;100.00
14612;BME280;7392;52.078;11.650;2023-07-20T05:19:29;100546.63;;;15.45;100.00
14612;BME280;7392;52.078;11.650;2023-07-20T05:21:57;100544.81;;;15.45;100.00
14612;BME280;7392;52.078;11.650;2023-07-20T05:24:25;100555.44;;;15.48;100.00
14612;BME280;7392;52.078;11.650;2023-07-20T05:26:53;100550.03;;;15.51;100.00
14612;BME280;7392;52.078;11.650;2023-07-20T05:29:21;100549.06;;;15.54;100.00
14612;BME280;7392;52.078;11.650;2023-07-20T05:31:50;100550.81;;;15.55;100.00
14612;BME280;7392;52.078;11.650;2023-07-20T05:34:18;100556.16;;;15.57;100.00
14612;BME280;7392;52.078;11.650;2023-07-20T05:36:47;100556.97;;;15.59;100.00
14612;BME280;7392;52.078;11.650;2023-07-20T05:39:16;100555.13;;;15.61;100.00
14612;BME280;7392;52.078;11.650;2023-07-20T05:41:44;100549.78;;;15.61;100.00
14612;BME280;7392;52.078;11.650;2023-07-20T05:44:12;100556.88;;;15.63;100.00
14612;BME280;7392;52.078;11.650;2023-07-20T05:46:41;100557.59;;;15.70;100.00
14612;BME280;7392;52.078;11.650;2023-07-20T05:49:25;100550.31;;;15.77;100.00
14612;BME280;7392;52.078;11.650;2023-07-20T05:51:52;100560.00;;;15.81;100.00
14612;BME280;7392;52.078;11.650;2023-07-20T05:54:20;100556.47;;;15.80;100.00
14612;BME280;7392;52.078;11.650;2023-07-20T05:56:48;100547.47;;;15.81;100.00
14612;BME280;7392;52.078;11.650;2023-07-20T05:59:16;100551.94;;;15.82;100.00
14612;BME280;7392;52.078;11.650;2023-07-20T06:01:43;100558.16;;;15.83;100.00
14612;BME280;7392;52.078;11.650;2023-07-20T06:04:12;100567.91;;;15.85;100.00
14612;BME280;7392;52.078;11.650;2023-07-20T06:06:41;100569.63;;;15.88;100.00
14612;BME280;7392;52.078;11.650;2023-07-20T06:09:09;100561.56;;;15.89;100.00
14612;BME280;7392;52.078;11.650;2023-07-20T06:11:38;100563.34;;;15.89;100.00
14612;BME280;7392;52.078;11.650;2023-07-20T06:14:06;100574.03;;;15.91;100.00
14612;BME280;7392;52.078;11.650;2023-07-20T06:16:34;100575.78;;;15.92;100.00
14612;BME280;7392;52.078;11.650;2023-07-20T06:19:02;100572.16;;;15.94;100.00
14612;BME280;7392;52.078;11.650;2023-07-20T06:21:30;100570.22;;;15.99;100.00
14612;BME280;7392;52.078;11.650;2023-07-20T06:23:59;100563.84;;;16.03;100.00
14612;BME280;7392;52.078;11.650;2023-07-20T06:26:27;100567.31;;;16.07;100.00
14612;BME280;7392;52.078;11.650;2023-07-20T06:28:55;100564.47;;;16.13;100.00
14612;BME280;7392;52.078;11.650;2023-07-20T06:31:22;100567.94;;;16.17;100.00
14612;BME280;7392;52.078;11.650;2023-07-20T06:33:50;100565.22;;;16.18;100.00
14612;BME280;7392;52.078;11.650;2023-07-20T06:36:18;100566.09;;;16.19;100.00
14612;BME280;7392;52.078;11.650;2023-07-20T06:38:46;100568.72;;;16.20;100.00
14612;BME280;7392;52.078;11.650;2023-07-20T06:41:19;100574.84;;;16.25;100.00
14612;BME280;7392;52.078;11.650;2023-07-20T06:43:49;100568.50;;;16.30;100.00
14612;BME280;7392;52.078;11.650;2023-07-20T06:46:19;100577.19;;;16.36;100.00
14612;BME280;7392;52.078;11.650;2023-07-20T06:48:47;100577.09;;;16.41;100.00
14612;BME280;7392;52.078;11.650;2023-07-20T06:51:18;100582.44;;;16.41;100.00
14612;BME280;7392;52.078;11.650;2023-07-20T06:53:46;100586.84;;;16.43;100.00
14612;BME280;7392;52.078;11.650;2023-07-20T06:56:14;100585.78;;;16.49;100.00
14612;BME280;7392;52.078;11.650;2023-07-20T06:58:43;100588.38;;;16.52;100.00
14612;BME280;7392;52.078;11.650;2023-07-20T07:01:11;100587.28;;;16.59;100.00
14612;BME280;7392;52.078;11.650;2023-07-20T07:03:39;100588.84;;;16.67;100.00
14612;BME280;7392;52.078;11.650;2023-07-20T07:06:07;100586.91;;;16.72;98.00
14612;BME280;7392;52.078;11.650;2023-07-20T07:08:34;100588.47;;;16.79;97.83
14612;BME280;7392;52.078;11.650;2023-07-20T07:11:02;100590.97;;;16.87;96.91
14612;BME280;7392;52.078;11.650;2023-07-20T07:13:30;100587.09;;;16.95;97.22
14612;BME280;7392;52.078;11.650;2023-07-20T07:15:59;100589.44;;;17.06;97.30
14612;BME280;7392;52.078;11.650;2023-07-20T07:18:27;100585.50;;;17.18;97.01
14612;BME280;7392;52.078;11.650;2023-07-20T07:20:56;100584.28;;;17.28;96.25
14612;BME280;7392;52.078;11.650;2023-07-20T07:23:29;100589.34;;;17.37;96.43
14612;BME280;7392;52.078;11.650;2023-07-20T07:25:56;100585.53;;;17.45;96.25
14612;BME280;7392;52.078;11.650;2023-07-20T07:28:24;100580.88;;;17.50;95.87
14612;BME280;7392;52.078;11.650;2023-07-20T07:30:52;100587.19;;;17.49;93.14
14612;BME280;7392;52.078;11.650;2023-07-20T07:33:25;100586.31;;;17.48;92.87
14612;BME280;7392;52.078;11.650;2023-07-20T07:35:53;100580.03;;;17.49;91.95
14612;BME280;7392;52.078;11.650;2023-07-20T07:38:20;100584.41;;;17.52;91.81
14612;BME280;7392;52.078;11.650;2023-07-20T07:41:08;100585.06;;;17.58;91.41
14612;BME280;7392;52.078;11.650;2023-07-20T07:43:36;100589.28;;;17.66;91.72
14612;BME280;7392;52.078;11.650;2023-07-20T07:46:05;100585.38;;;17.76;92.27
14612;BME280;7392;52.078;11.650;2023-07-20T07:48:34;100583.31;;;17.84;91.32
14612;BME280;7392;52.078;11.650;2023-07-20T07:51:01;100587.69;;;17.88;90.82
14612;BME280;7392;52.078;11.650;2023-07-20T07:53:30;100587.44;;;17.94;90.52
14612;BME280;7392;52.078;11.650;2023-07-20T07:55:58;100589.94;;;18.01;89.93
14612;BME280;7392;52.078;11.650;2023-07-20T07:58:27;100587.97;;;18.06;89.94
14612;BME280;7392;52.078;11.650;2023-07-20T08:00:54;100590.47;;;18.10;90.17
14612;BME280;7392;52.078;11.650;2023-07-20T08:03:22;100593.94;;;18.14;89.86
14612;BME280;7392;52.078;11.650;2023-07-20T08:05:53;100591.97;;;18.19;89.80
14612;BME280;7392;52.078;11.650;2023-07-20T08:08:22;100595.41;;;18.23;89.33
14612;BME280;7392;52.078;11.650;2023-07-20T08:10:53;100600.78;;;18.23;88.10
14612;BME280;7392;52.078;11.650;2023-07-20T08:13:21;100598.91;;;18.25;88.90
14612;BME280;7392;52.078;11.650;2023-07-20T08:15:50;100605.16;;;18.25;88.85
14612;BME280;7392;52.078;11.650;2023-07-20T08:18:18;100606.81;;;18.29;89.44
14612;BME280;7392;52.078;11.650;2023-07-20T08:20:47;100615.81;;;18.28;88.48
14612;BME280;7392;52.078;11.650;2023-07-20T08:23:17;100607.75;;;18.28;88.99
14612;BME280;7392;52.078;11.650;2023-07-20T08:25:44;100610.47;;;18.27;89.11
14612;BME280;7392;52.078;11.650;2023-07-20T08:28:14;100613.06;;;18.30;89.61
14612;BME280;7392;52.078;11.650;2023-07-20T08:30:42;100610.22;;;18.35;89.15
14612;BME280;7392;52.078;11.650;2023-07-20T08:33:13;100610.78;;;18.43;89.08
14612;BME280;7392;52.078;11.650;2023-07-20T08:35:42;100616.88;;;18.48;88.61
14612;BME280;7392;52.078;11.650;2023-07-20T08:38:10;100624.56;;;18.59;88.23
14612;BME280;7392;52.078;11.650;2023-07-20T08:40:41;100617.00;;;18.68;88.02
14612;BME280;7392;52.078;11.650;2023-07-20T08:43:10;100620.28;;;18.77;87.08
14612;BME280;7392;52.078;11.650;2023-07-20T08:45:40;100620.34;;;18.75;84.78
14612;BME280;7392;52.078;11.650;2023-07-20T08:48:08;100622.16;;;18.75;84.04
14612;BME280;7392;52.078;11.650;2023-07-20T08:50:37;100620.47;;;18.72;82.94
14612;BME280;7392;52.078;11.650;2023-07-20T08:53:06;100618.72;;;18.71;82.74
14612;BME280;7392;52.078;11.650;2023-07-20T08:55:37;100625.72;;;18.75;83.12
14612;BME280;7392;52.078;11.650;2023-07-20T08:58:08;100623.72;;;18.80;83.55
14612;BME280;7392;52.078;11.650;2023-07-20T09:00:38;100621.91;;;18.82;83.19
14612;BME280;7392;52.078;11.650;2023-07-20T09:03:08;100631.75;;;18.82;81.92
14612;BME280;7392;52.078;11.650;2023-07-20T09:05:36;100620.91;;;18.85;82.44
14612;BME280;7392;52.078;11.650;2023-07-20T09:08:05;100631.56;;;18.88;82.20
14612;BME280;7392;52.078;11.650;2023-07-20T09:10:33;100634.31;;;18.86;81.33
14612;BME280;7392;52.078;11.650;2023-07-20T09:13:01;100636.31;;;18.80;81.07
14612;BME280;7392;52.078;11.650;2023-07-20T09:15:30;100639.16;;;18.75;82.22
14612;BME280;7392;52.078;11.650;2023-07-20T09:18:01;100649.13;;;18.73;82.45
14612;BME280;7392;52.078;11.650;2023-07-20T09:20:32;100638.78;;;18.62;82.93
14612;BME280;7392;52.078;11.650;2023-07-20T09:23:04;100650.41;;;18.63;83.62
14612;BME280;7392;52.078;11.650;2023-07-20T09:25:32;100645.97;;;18.62;83.99
14612;BME280;7392;52.078;11.650;2023-07-20T09:28:02;100641.28;;;18.67;84.58
14612;BME280;7392;52.078;11.650;2023-07-20T09:30:33;100638.34;;;18.73;84.54
14612;BME280;7392;52.078;11.650;2023-07-20T09:33:01;100644.44;;;18.78;84.05
14612;BME280;7392;52.078;11.650;2023-07-20T09:35:29;100641.44;;;18.87;84.29
14612;BME280;7392;52.078;11.650;2023-07-20T09:38:08;100639.09;;;19.02;83.52
14612;BME280;7392;52.078;11.650;2023-07-20T09:40:40;100636.72;;;19.16;83.65
14612;BME280;7392;52.078;11.650;2023-07-20T09:43:11;100646.00;;;19.31;83.51
14612;BME280;7392;52.078;11.650;2023-07-20T09:45:43;100647.44;;;19.40;82.03
14612;BME280;7392;52.078;11.650;2023-07-20T09:48:14;100642.81;;;19.43;81.83
14612;BME280;7392;52.078;11.650;2023-07-20T09:50:49;100643.78;;;19.42;81.43
14612;BME280;7392;52.078;11.650;2023-07-20T09:53:18;100648.13;;;19.45;81.27
14612;BME280;7392;52.078;11.650;2023-07-20T09:55:47;100652.66;;;19.44;80.13
14612;BME280;7392;52.078;11.650;2023-07-20T09:58:16;100641.78;;;19.48;79.93
14612;BME280;7392;52.078;11.650;2023-07-20T10:00:46;100646.94;;;19.52;80.44
14612;BME280;7392;52.078;11.650;2023-07-20T10:03:21;100646.88;;;19.54;78.96
14612;BME280;7392;52.078;11.650;2023-07-20T10:05:56;100646.75;;;19.57;79.76
14612;BME280;7392;52.078;11.650;2023-07-20T10:08:25;100652.84;;;19.62;79.20
14612;BME280;7392;52.078;11.650;2023-07-20T10:10:57;100643.88;;;19.61;77.80
14612;BME280;7392;52.078;11.650;2023-07-20T10:13:29;100646.59;;;19.61;76.62
14612;BME280;7392;52.078;11.650;2023-07-20T10:16:02;100649.53;;;19.77;76.82
14612;BME280;7392;52.078;11.650;2023-07-20T10:18:34;100646.25;;;19.91;75.98
14612;BME280;7392;52.078;11.650;2023-07-20T10:21:06;100639.59;;;20.00;75.42
14612;BME280;7392;52.078;11.650;2023-07-20T10:23:38;100643.44;;;20.15;75.87
14612;BME280;7392;52.078;11.650;2023-07-20T10:26:07;100643.81;;;20.28;76.00
14612;BME280;7392;52.078;11.650;2023-07-20T10:28:36;100638.16;;;20.53;76.56
14612;BME280;7392;52.078;11.650;2023-07-20T10:31:07;100641.13;;;20.88;74.63
14612;BME280;7392;52.078;11.650;2023-07-20T10:33:36;100634.91;;;21.05;73.63
14612;BME280;7392;52.078;11.650;2023-07-20T10:36:06;100641.69;;;21.14;72.37
14612;BME280;7392;52.078;11.650;2023-07-20T10:38:40;100633.31;;;21.20;70.15
14612;BME280;7392;52.078;11.650;2023-07-20T10:41:19;100630.97;;;21.12;68.85
14612;BME280;7392;52.078;11.650;2023-07-20T10:43:48;100634.78;;;21.08;66.14
14612;BME280;7392;52.078;11.650;2023-07-20T10:46:35;100635.06;;;21.02;66.66
14612;BME280;7392;52.078;11.650;2023-07-20T10:49:10;100631.34;;;21.04;66.01
14612;BME280;7392;52.078;11.650;2023-07-20T10:51:39;100633.97;;;21.25;66.04
14612;BME280;7392;52.078;11.650;2023-07-20T10:54:08;100626.53;;;21.49;65.74
14612;BME280;7392;52.078;11.650;2023-07-20T10:56:36;100626.41;;;21.87;65.79
14612;BME280;7392;52.078;11.650;2023-07-20T10:59:18;100623.59;;;22.23;64.07
14612;BME280;7392;52.078;11.650;2023-07-20T11:01:48;100622.31;;;22.66;64.37
14612;BME280;7392;52.078;11.650;2023-07-20T11:04:16;100626.34;;;22.90;61.25
14612;BME280;7392;52.078;11.650;2023-07-20T11:06:46;100613.31;;;23.14;60.05
14612;BME280;7392;52.078;11.650;2023-07-20T11:09:14;100614.97;;;23.17;57.41
14612;BME280;7392;52.078;11.650;2023-07-20T11:11:43;100615.41;;;23.25;55.31
14612;BME280;7392;52.078;11.650;2023-07-20T11:14:21;100618.06;;;23.57;55.76
14612;BME280;7392;52.078;11.650;2023-07-20T11:16:52;100615.94;;;23.94;55.49
14612;BME280;7392;52.078;11.650;2023-07-20T11:19:21;100612.44;;;24.22;53.93
14612;BME280;7392;52.078;11.650;2023-07-20T11:21:54;100615.44;;;24.46;53.36
14612;BME280;7392;52.078;11.650;2023-07-20T11:24:30;100621.41;;;24.82;53.03
14612;BME280;7392;52.078;11.650;2023-07-20T11:26:59;100606.91;;;25.10;51.95
14612;BME280;7392;52.078;11.650;2023-07-20T11:29:27;100618.63;;;25.11;51.19
14612;BME280;7392;52.078;11.650;2023-07-20T11:32:02;100620.19;;;25.00;50.50
14612;BME280;7392;52.078;11.650;2023-07-20T11:34:32;100623.41;;;24.78;48.96
14612;BME280;7392;52.078;11.650;2023-07-20T11:37:00;100628.88;;;24.64;49.07
14612;BME280;7392;52.078;11.650;2023-07-20T11:39:32;100627.84;;;24.51;48.20
14612;BME280;7392;52.078;11.650;2023-07-20T11:41:59;100620.59;;;24.51;48.10
14612;BME280;7392;52.078;11.650;2023-07-20T11:44:28;100611.91;;;24.89;48.81
14612;BME280;7392;52.078;11.650;2023-07-20T11:47:03;100615.84;;;25.27;47.76
14612;BME280;7392;52.078;11.650;2023-07-20T11:49:34;100608.34;;;25.57;47.61
14612;BME280;7392;52.078;11.650;2023-07-20T11:52:03;100605.09;;;25.65;45.75
14612;BME280;7392;52.078;11.650;2023-07-20T11:54:32;100601.44;;;25.79;46.22
14612;BME280;7392;52.078;11.650;2023-07-20T11:57:01;100602.25;;;25.94;45.54
14612;BME280;7392;52.078;11.650;2023-07-20T11:59:29;100613.84;;;26.10;44.07
14612;BME280;7392;52.078;11.650;2023-07-20T12:01:58;100610.91;;;26.26;43.44
14612;BME280;7392;52.078;11.650;2023-07-20T12:04:31;100607.03;;;26.56;43.39
14612;BME280;7392;52.078;11.650;2023-07-20T12:06:58;100614.88;;;26.74;41.48
14612;BME280;7392;52.078;11.650;2023-07-20T12:09:26;100615.06;;;26.58;40.61
14612;BME280;7392;52.078;11.650;2023-07-20T12:12:14;100626.50;;;26.37;40.82
14612;BME280;7392;52.078;11.650;2023-07-20T12:14:42;100621.72;;;26.54;41.61
14612;BME280;7392;52.078;11.650;2023-07-20T12:17:10;100612.69;;;26.79;41.49
14612;BME280;7392;52.078;11.650;2023-07-20T12:19:39;100604.34;;;27.06;41.47
14612;BME280;7392;52.078;11.650;2023-07-20T12:22:07;100600.63;;;27.07;41.71
14612;BME280;7392;52.078;11.650;2023-07-20T12:24:38;100605.66;;;27.00;41.08
14612;BME280;7392;52.078;11.650;2023-07-20T12:27:06;100598.63;;;27.22;41.80
14612;BME280;7392;52.078;11.650;2023-07-20T12:29:33;100600.34;;;27.60;41.78
14612;BME280;7392;52.078;11.650;2023-07-20T12:32:04;100595.09;;;28.05;42.42
14612;BME280;7392;52.078;11.650;2023-07-20T12:34:32;100595.81;;;28.43;41.46
14612;BME280;7392;52.078;11.650;2023-07-20T12:37:04;100595.69;;;28.56;39.21
14612;BME280;7392;52.078;11.650;2023-07-20T12:39:32;100590.25;;;28.67;38.24
14612;BME280;7392;52.078;11.650;2023-07-20T12:42:00;100581.44;;;28.63;36.98
14612;BME280;7392;52.078;11.650;2023-07-20T12:44:28;100579.88;;;28.25;35.79
14612;BME280;7392;52.078;11.650;2023-07-20T12:46:55;100584.69;;;28.22;36.72
14612;BME280;7392;52.078;11.650;2023-07-20T12:49:23;100581.50;;;28.28;36.72
14612;BME280;7392;52.078;11.650;2023-07-20T12:51:51;100586.75;;;28.53;36.84
14612;BME280;7392;52.078;11.650;2023-07-20T12:54:20;100584.78;;;28.78;37.62
14612;BME280;7392;52.078;11.650;2023-07-20T12:56:48;100587.59;;;28.54;36.22